createdAt,value
2024-03-30T00:00:46.863Z,2.70
2024-03-30T00:01:47.618Z,3.20
2024-03-30T00:02:48.433Z,2.80
2024-03-30T00:03:49.170Z,2.80
2024-03-30T00:04:49.938Z,3.10
2024-03-30T00:05:50.682Z,2.80
2024-03-30T00:06:51.442Z,3.00
2024-03-30T00:07:52.300Z,2.60
2024-03-30T00:08:53.047Z,3.10
2024-03-30T00:09:53.808Z,2.80
2024-03-30T00:10:54.555Z,2.50
2024-03-30T00:11:55.323Z,3.00
2024-03-30T00:12:56.066Z,2.90
2024-03-30T00:13:56.845Z,2.70
2024-03-30T00:14:57.599Z,2.90
2024-03-30T00:15:58.352Z,2.60
2024-03-30T00:16:59.096Z,2.60
2024-03-30T00:17:59.863Z,2.60
2024-03-30T00:19:00.684Z,2.60
2024-03-30T00:20:01.433Z,2.70
2024-03-30T00:21:02.194Z,2.50
2024-03-30T00:22:02.943Z,2.80
2024-03-30T00:23:03.710Z,2.70
2024-03-30T00:24:04.481Z,2.80
2024-03-30T00:25:05.233Z,2.80
2024-03-30T00:26:06.008Z,2.70
2024-03-30T00:27:06.740Z,3.00
2024-03-30T00:28:07.478Z,2.80
2024-03-30T00:29:08.257Z,2.90
2024-03-30T00:30:09.010Z,2.80
2024-03-30T00:31:09.758Z,2.90
2024-03-30T00:32:10.508Z,2.60
2024-03-30T00:33:11.262Z,2.70
2024-03-30T00:34:12.039Z,2.70
2024-03-30T00:35:12.810Z,2.90
2024-03-30T00:36:13.552Z,2.60
2024-03-30T00:37:14.306Z,2.70
2024-03-30T00:38:15.061Z,2.90
2024-03-30T00:39:15.833Z,2.80
2024-03-30T00:40:16.581Z,2.60
2024-03-30T00:41:17.361Z,2.50
2024-03-30T00:42:18.102Z,3.10
2024-03-30T00:43:18.863Z,2.90
2024-03-30T00:44:19.653Z,2.90
2024-03-30T00:45:20.399Z,3.10
2024-03-30T00:46:21.153Z,3.00
2024-03-30T00:47:26.475Z,3.00
2024-03-30T00:48:23.575Z,2.70
2024-03-30T00:49:23.372Z,2.60
2024-03-30T00:50:24.195Z,2.70
2024-03-30T00:51:24.898Z,2.90
2024-03-30T00:52:25.641Z,2.50
2024-03-30T00:53:26.418Z,2.80
2024-03-30T00:54:27.249Z,2.60
2024-03-30T00:55:27.979Z,2.90
2024-03-30T00:56:28.730Z,2.70
2024-03-30T00:57:29.464Z,3.00
2024-03-30T00:58:30.228Z,2.70
2024-03-30T00:59:30.992Z,2.70
2024-03-30T01:00:31.770Z,2.70
2024-03-30T01:01:32.530Z,2.80
2024-03-30T01:02:33.278Z,2.90
2024-03-30T01:03:34.047Z,3.40
2024-03-30T01:04:34.781Z,2.90
2024-03-30T01:05:35.544Z,3.30
2024-03-30T01:06:36.290Z,3.10
2024-03-30T01:07:37.072Z,3.10
2024-03-30T01:08:37.794Z,2.70
2024-03-30T01:09:38.552Z,2.70
2024-03-30T01:10:39.335Z,3.30
2024-03-30T01:11:40.106Z,2.80
2024-03-30T01:12:40.848Z,2.80
2024-03-30T01:13:41.595Z,3.30
2024-03-30T01:14:42.389Z,3.30
2024-03-30T01:15:43.149Z,3.00
2024-03-30T01:16:43.905Z,3.40
2024-03-30T01:17:44.685Z,3.00
2024-03-30T01:18:45.403Z,2.90
2024-03-30T01:19:46.151Z,3.30
2024-03-30T01:20:46.932Z,3.20
2024-03-30T01:21:47.663Z,3.10
2024-03-30T01:22:48.410Z,3.00
2024-03-30T01:23:49.186Z,3.00
2024-03-30T01:24:49.930Z,3.30
2024-03-30T01:25:50.713Z,2.70
2024-03-30T01:26:51.507Z,3.10
2024-03-30T01:27:52.239Z,3.10
2024-03-30T01:28:52.987Z,3.30
2024-03-30T01:29:53.753Z,3.40
2024-03-30T01:30:54.541Z,3.10
2024-03-30T01:31:55.290Z,3.50
2024-03-30T01:32:56.042Z,3.30
2024-03-30T01:33:56.881Z,3.10
2024-03-30T01:34:58.188Z,3.70
2024-03-30T01:35:58.492Z,3.10
2024-03-30T01:37:00.439Z,3.10
2024-03-30T01:38:00.153Z,3.20
2024-03-30T01:39:00.950Z,2.90
2024-03-30T01:40:01.700Z,3.00
2024-03-30T01:41:02.456Z,3.30
2024-03-30T01:42:03.224Z,2.90
2024-03-30T01:43:04.005Z,3.10
2024-03-30T01:44:04.737Z,2.70
2024-03-30T01:45:05.501Z,2.90
2024-03-30T01:46:06.270Z,2.90
2024-03-30T01:47:07.034Z,3.40
2024-03-30T01:48:07.792Z,3.00
2024-03-30T01:49:08.530Z,3.20
2024-03-30T01:50:09.367Z,2.80
2024-03-30T01:51:10.177Z,3.00
2024-03-30T01:52:10.938Z,3.10
2024-03-30T01:53:11.665Z,2.90
2024-03-30T01:54:12.426Z,2.80
2024-03-30T01:55:13.208Z,3.30
2024-03-30T01:56:14.108Z,3.30
2024-03-30T01:57:14.865Z,3.30
2024-03-30T01:58:15.644Z,3.20
2024-03-30T01:59:16.360Z,3.50
2024-03-30T02:00:17.116Z,3.10
2024-03-30T02:01:17.892Z,3.20
2024-03-30T02:02:18.707Z,3.00
2024-03-30T02:03:19.445Z,3.40
2024-03-30T02:04:20.260Z,3.30
2024-03-30T02:05:20.962Z,3.10
2024-03-30T02:06:21.887Z,3.40
2024-03-30T02:07:22.581Z,3.60
2024-03-30T02:08:23.353Z,3.40
2024-03-30T02:09:24.212Z,3.00
2024-03-30T02:10:25.140Z,3.10
2024-03-30T02:15:53.469Z,3.40
2024-03-30T02:16:52.894Z,3.80
2024-03-30T02:20:51.874Z,3.60
2024-03-30T02:21:50.929Z,3.70
2024-03-30T02:26:07.800Z,3.80
2024-03-30T02:27:08.461Z,3.80
2024-03-30T02:28:09.206Z,4.00
2024-03-30T02:29:09.967Z,3.50
2024-03-30T02:30:10.750Z,3.80
2024-03-30T02:31:11.486Z,3.60
2024-03-30T02:32:12.301Z,4.20
2024-03-30T02:33:13.342Z,3.60
2024-03-30T02:34:14.097Z,3.90
2024-03-30T02:35:14.837Z,4.50
2024-03-30T02:36:15.640Z,3.70
2024-03-30T02:37:16.432Z,4.10
2024-03-30T02:38:17.217Z,4.20
2024-03-30T02:39:18.010Z,4.30
2024-03-30T02:40:18.842Z,4.20
2024-03-30T02:41:19.689Z,4.30
2024-03-30T02:42:20.492Z,4.40
2024-03-30T02:43:21.294Z,4.00
2024-03-30T02:44:22.139Z,4.50
2024-03-30T02:45:22.867Z,4.70
2024-03-30T02:46:23.643Z,4.80
2024-03-30T02:47:24.446Z,4.80
2024-03-30T02:48:25.180Z,4.40
2024-03-30T02:49:26.017Z,4.90
2024-03-30T02:50:26.759Z,4.60
2024-03-30T02:51:27.528Z,4.20
2024-03-30T02:52:28.256Z,4.10
2024-03-30T02:53:29.036Z,4.20
2024-03-30T02:54:29.822Z,4.10
2024-03-30T02:55:30.564Z,3.90
2024-03-30T02:56:31.326Z,3.90
2024-03-30T02:57:32.077Z,3.70
2024-03-30T02:58:32.826Z,3.60
2024-03-30T02:59:33.726Z,3.70
2024-03-30T03:00:34.469Z,3.70
2024-03-30T03:01:35.285Z,3.50
2024-03-30T03:02:35.999Z,3.30
2024-03-30T03:03:36.766Z,3.70
2024-03-30T03:04:37.571Z,3.20
2024-03-30T03:05:38.300Z,3.60
2024-03-30T03:06:39.051Z,3.30
2024-03-30T03:07:39.804Z,3.50
2024-03-30T03:08:40.582Z,3.50
2024-03-30T03:09:41.521Z,3.50
2024-03-30T03:10:42.260Z,3.10
2024-03-30T03:11:43.001Z,3.00
2024-03-30T03:12:43.721Z,3.50
2024-03-30T03:13:44.470Z,3.10
2024-03-30T03:14:45.260Z,2.80
2024-03-30T03:15:46.017Z,2.90
2024-03-30T03:16:46.830Z,2.80
2024-03-30T03:17:47.582Z,3.00
2024-03-30T03:18:48.342Z,2.60
2024-03-30T03:19:49.141Z,2.50
2024-03-30T03:20:49.886Z,2.80
2024-03-30T03:21:50.622Z,2.50
2024-03-30T03:22:51.434Z,2.60
2024-03-30T03:23:52.190Z,2.40
2024-03-30T03:24:52.954Z,2.50
2024-03-30T03:25:53.718Z,2.60
2024-03-30T03:26:54.512Z,2.80
2024-03-30T03:27:55.242Z,3.20
2024-03-30T03:28:56.015Z,3.10
2024-03-30T03:29:56.842Z,2.60
2024-03-30T03:30:57.562Z,2.70
2024-03-30T03:31:58.330Z,2.70
2024-03-30T03:32:59.125Z,2.20
2024-03-30T03:33:59.918Z,2.20
2024-03-30T03:35:00.707Z,2.40
2024-03-30T03:36:01.508Z,2.30
2024-03-30T03:37:02.224Z,2.40
2024-03-30T03:38:03.001Z,2.20
2024-03-30T03:39:03.754Z,2.50
2024-03-30T03:40:04.524Z,2.10
2024-03-30T03:41:05.278Z,2.50
2024-03-30T03:42:06.046Z,2.20
2024-03-30T03:43:06.797Z,2.40
2024-03-30T03:44:07.540Z,2.40
2024-03-30T03:45:08.316Z,2.40
2024-03-30T03:46:09.077Z,2.30
2024-03-30T03:47:09.840Z,2.20
2024-03-30T03:48:10.575Z,2.80
2024-03-30T03:49:11.335Z,2.90
2024-03-30T03:50:12.132Z,2.80
2024-03-30T03:51:12.879Z,3.00
2024-03-30T03:52:13.625Z,3.20
2024-03-30T03:53:14.399Z,2.90
2024-03-30T03:54:15.153Z,2.60
2024-03-30T03:55:15.933Z,2.70
2024-03-30T03:56:16.687Z,2.60
2024-03-30T03:57:17.469Z,2.50
2024-03-30T03:58:18.212Z,2.60
2024-03-30T03:59:18.968Z,2.60
2024-03-30T04:00:19.752Z,3.00
2024-03-30T04:01:20.493Z,2.50
2024-03-30T04:02:21.261Z,2.90
2024-03-30T04:03:21.998Z,2.80
2024-03-30T04:04:22.738Z,3.10
2024-03-30T04:05:23.502Z,3.10
2024-03-30T04:06:24.304Z,3.30
2024-03-30T04:07:25.037Z,3.30
2024-03-30T04:08:25.789Z,3.00
2024-03-30T04:09:26.537Z,3.10
2024-03-30T04:10:27.304Z,3.40
2024-03-30T04:11:28.059Z,3.40
2024-03-30T04:12:28.845Z,3.60
2024-03-30T04:13:29.587Z,3.40
2024-03-30T04:14:30.346Z,3.50
2024-03-30T04:15:31.099Z,3.60
2024-03-30T04:16:34.635Z,3.70
2024-03-30T04:17:32.574Z,3.50
2024-03-30T04:18:33.333Z,3.50
2024-03-30T04:19:34.095Z,3.80
2024-03-30T04:20:34.839Z,3.70
2024-03-30T04:21:35.604Z,3.60
2024-03-30T04:22:36.356Z,3.80
2024-03-30T04:23:37.107Z,3.50
2024-03-30T04:24:37.869Z,4.00
2024-03-30T04:25:38.634Z,3.50
2024-03-30T04:26:39.388Z,3.90
2024-03-30T04:27:40.148Z,3.70
2024-03-30T04:28:40.893Z,3.60
2024-03-30T04:29:41.627Z,4.20
2024-03-30T04:30:42.386Z,3.90
2024-03-30T04:31:43.183Z,3.40
2024-03-30T04:32:43.933Z,3.70
2024-03-30T04:33:44.691Z,3.90
2024-03-30T04:34:45.431Z,3.90
2024-03-30T04:35:46.193Z,4.10
2024-03-30T04:36:47.008Z,4.00
2024-03-30T04:37:47.738Z,4.00
2024-03-30T04:38:48.522Z,3.70
2024-03-30T04:39:49.246Z,4.10
2024-03-30T04:40:49.990Z,4.00
2024-03-30T04:41:50.803Z,4.10
2024-03-30T04:42:51.561Z,3.80
2024-03-30T04:43:52.293Z,4.00
2024-03-30T04:44:53.054Z,3.80
2024-03-30T04:45:53.808Z,3.90
2024-03-30T04:46:54.571Z,3.50
2024-03-30T04:47:55.367Z,3.70
2024-03-30T04:48:56.078Z,3.30
2024-03-30T04:49:56.820Z,3.70
2024-03-30T04:50:57.626Z,3.80
2024-03-30T04:51:58.377Z,3.80
2024-03-30T04:52:59.224Z,3.80
2024-03-30T04:53:59.975Z,3.80
2024-03-30T04:55:00.761Z,3.90
2024-03-30T04:56:01.501Z,3.60
2024-03-30T04:57:02.319Z,3.80
2024-03-30T04:58:03.047Z,3.60
2024-03-30T04:59:03.789Z,4.00
2024-03-30T05:00:04.536Z,3.80
2024-03-30T05:01:05.308Z,4.00
2024-03-30T05:02:06.147Z,4.20
2024-03-30T05:03:06.876Z,4.10
2024-03-30T05:04:07.621Z,4.20
2024-03-30T05:05:08.368Z,3.80
2024-03-30T05:06:09.127Z,4.20
2024-03-30T05:07:09.925Z,3.70
2024-03-30T05:08:10.649Z,3.90
2024-03-30T05:09:11.411Z,4.20
2024-03-30T05:10:12.157Z,3.90
2024-03-30T05:11:12.909Z,3.90
2024-03-30T05:12:13.707Z,4.00
2024-03-30T05:13:14.477Z,4.00
2024-03-30T05:14:15.223Z,4.10
2024-03-30T05:15:15.966Z,4.10
2024-03-30T05:16:16.711Z,3.80
2024-03-30T05:17:17.480Z,3.70
2024-03-30T05:18:18.247Z,3.80
2024-03-30T05:19:18.990Z,3.60
2024-03-30T05:20:19.749Z,3.80
2024-03-30T05:21:20.509Z,3.40
2024-03-30T05:22:21.269Z,3.40
2024-03-30T05:23:22.071Z,3.60
2024-03-30T05:24:22.886Z,3.40
2024-03-30T05:25:23.605Z,3.30
2024-03-30T05:26:24.371Z,3.20
2024-03-30T05:27:25.124Z,3.30
2024-03-30T05:28:25.935Z,3.10
2024-03-30T05:29:26.677Z,3.20
2024-03-30T05:30:27.420Z,3.30
2024-03-30T05:31:28.161Z,3.40
2024-03-30T05:32:28.912Z,2.90
2024-03-30T05:33:29.694Z,3.20
2024-03-30T05:34:30.441Z,3.10
2024-03-30T05:35:31.186Z,3.30
2024-03-30T05:36:31.937Z,3.30
2024-03-30T05:37:32.697Z,3.10
2024-03-30T05:38:33.455Z,3.30
2024-03-30T05:39:34.209Z,3.20
2024-03-30T05:40:34.984Z,3.00
2024-03-30T05:41:35.729Z,3.10
2024-03-30T05:42:36.473Z,2.70
2024-03-30T05:43:37.301Z,2.80
2024-03-30T05:44:38.084Z,2.80
2024-03-30T05:45:38.834Z,2.80
2024-03-30T05:46:39.588Z,2.80
2024-03-30T05:47:40.355Z,2.80
2024-03-30T05:48:41.120Z,2.60
2024-03-30T05:49:41.828Z,2.70
2024-03-30T05:50:42.575Z,2.70
2024-03-30T05:51:43.334Z,3.20
2024-03-30T05:52:44.077Z,2.70
2024-03-30T05:53:44.936Z,2.60
2024-03-30T05:54:45.645Z,3.00
2024-03-30T05:57:47.415Z,2.60
2024-03-30T05:58:48.202Z,3.10
2024-03-30T05:59:48.938Z,2.90
2024-03-30T06:00:49.749Z,2.50
2024-03-30T06:01:50.381Z,2.70
2024-03-30T06:02:51.178Z,2.40
2024-03-30T06:03:51.884Z,2.10
2024-03-30T06:04:52.730Z,2.70
2024-03-30T06:05:53.484Z,2.90
2024-03-30T06:06:54.310Z,2.30
2024-03-30T06:07:55.043Z,2.00
2024-03-30T06:08:55.890Z,1.90
2024-03-30T06:09:56.657Z,2.50
2024-03-30T06:10:57.397Z,2.00
2024-03-30T06:11:58.196Z,2.10
2024-03-30T06:12:58.960Z,2.00
2024-03-30T06:13:59.728Z,1.90
2024-03-30T06:15:00.524Z,1.80
2024-03-30T06:16:01.302Z,1.70
2024-03-30T06:17:02.071Z,2.30
2024-03-30T06:18:02.980Z,1.90
2024-03-30T06:19:03.709Z,2.20
2024-03-30T06:20:04.466Z,1.50
2024-03-30T06:21:05.266Z,1.70
2024-03-30T06:22:06.132Z,1.80
2024-03-30T06:23:06.867Z,1.80
2024-03-30T06:24:07.701Z,1.90
2024-03-30T06:25:08.424Z,1.70
2024-03-30T06:26:09.180Z,1.90
2024-03-30T06:27:09.932Z,1.90
2024-03-30T06:28:10.750Z,2.10
2024-03-30T06:29:11.516Z,1.70
2024-03-30T06:30:12.247Z,1.70
2024-03-30T06:31:13.073Z,1.70
2024-03-30T06:32:13.787Z,1.70
2024-03-30T06:33:14.592Z,1.50
2024-03-30T06:34:15.353Z,1.60
2024-03-30T06:35:16.195Z,1.50
2024-03-30T06:36:16.896Z,1.60
2024-03-30T06:37:17.732Z,1.70
2024-03-30T06:38:18.497Z,2.00
2024-03-30T06:39:19.274Z,1.60
2024-03-30T06:40:20.034Z,1.90
2024-03-30T06:41:20.775Z,1.50
2024-03-30T06:42:21.565Z,1.80
2024-03-30T06:43:22.321Z,1.60
2024-03-30T06:44:23.089Z,1.70
2024-03-30T06:45:23.815Z,1.40
2024-03-30T06:46:24.602Z,1.50
2024-03-30T06:47:25.327Z,1.80
2024-03-30T06:48:26.112Z,1.70
2024-03-30T06:49:26.900Z,1.50
2024-03-30T06:50:27.663Z,1.50
2024-03-30T06:51:28.407Z,1.80
2024-03-30T06:52:29.149Z,1.60
2024-03-30T06:53:29.947Z,1.60
2024-03-30T06:54:30.735Z,1.70
2024-03-30T06:55:31.506Z,1.60
2024-03-30T06:56:32.241Z,1.50
2024-03-30T06:57:33.033Z,1.60
2024-03-30T06:58:34.174Z,1.80
2024-03-30T06:59:34.416Z,1.60
2024-03-30T07:00:35.167Z,1.70
2024-03-30T07:01:35.949Z,1.50
2024-03-30T07:02:36.693Z,1.50
2024-03-30T07:03:37.490Z,1.70
2024-03-30T07:04:38.227Z,1.50
2024-03-30T07:05:38.982Z,1.90
2024-03-30T07:06:39.806Z,2.00
2024-03-30T07:07:40.520Z,4.90
2024-03-30T07:08:41.310Z,4.20
2024-03-30T07:09:42.061Z,3.60
2024-03-30T07:10:42.891Z,1.40
2024-03-30T07:11:43.607Z,1.70
2024-03-30T07:12:44.364Z,2.10
2024-03-30T07:13:45.208Z,1.80
2024-03-30T07:14:45.973Z,3.30
2024-03-30T07:15:46.710Z,3.90
2024-03-30T07:17:13.472Z,10.00
2024-03-30T07:17:49.143Z,2.90
2024-03-30T07:18:48.886Z,2.20
2024-03-30T07:19:49.649Z,2.10
2024-03-30T07:20:50.400Z,1.80
2024-03-30T07:21:51.180Z,1.70
2024-03-30T07:22:52.033Z,1.40
2024-03-30T07:23:52.745Z,1.60
2024-03-30T07:24:53.512Z,1.80
2024-03-30T07:25:54.255Z,1.60
2024-03-30T07:26:55.027Z,1.60
2024-03-30T07:27:55.803Z,1.60
2024-03-30T07:28:56.566Z,1.50
2024-03-30T07:29:57.347Z,1.80
2024-03-30T07:30:58.132Z,1.90
2024-03-30T07:31:58.881Z,1.50
2024-03-30T07:32:59.791Z,1.80
2024-03-30T07:34:00.504Z,1.30
2024-03-30T07:35:01.377Z,1.60
2024-03-30T07:36:02.110Z,1.60
2024-03-30T07:37:02.861Z,1.80
2024-03-30T07:38:03.608Z,1.60
2024-03-30T07:39:04.413Z,1.50
2024-03-30T07:40:05.177Z,1.70
2024-03-30T07:41:06.012Z,2.10
2024-03-30T07:42:06.729Z,1.50
2024-03-30T07:43:07.536Z,2.00
2024-03-30T07:44:18.417Z,4.80
2024-03-30T07:45:09.201Z,2.80
2024-03-30T07:46:09.950Z,1.80
2024-03-30T07:47:10.750Z,1.60
2024-03-30T07:48:11.387Z,1.50
2024-03-30T07:49:12.152Z,1.60
2024-03-30T07:50:12.952Z,1.70
2024-03-30T07:51:13.719Z,1.40
2024-03-30T07:52:14.439Z,1.80
2024-03-30T07:53:15.389Z,1.50
2024-03-30T07:54:16.094Z,1.60
2024-03-30T07:55:16.852Z,3.10
2024-03-30T07:56:17.609Z,2.60
2024-03-30T07:57:18.377Z,1.90
2024-03-30T07:58:19.171Z,1.90
2024-03-30T07:59:19.990Z,2.00
2024-03-30T08:00:20.723Z,1.40
2024-03-30T08:01:21.463Z,1.60
2024-03-30T08:02:22.218Z,2.10
2024-03-30T08:03:23.038Z,2.20
2024-03-30T08:04:23.965Z,2.40
2024-03-30T08:05:24.681Z,2.30
2024-03-30T08:06:25.443Z,1.70
2024-03-30T08:07:26.465Z,1.90
2024-03-30T08:08:26.970Z,1.80
2024-03-30T08:09:27.702Z,2.20
2024-03-30T08:10:28.445Z,1.90
2024-03-30T08:11:29.338Z,2.00
2024-03-30T08:12:30.139Z,1.50
2024-03-30T08:13:30.999Z,1.60
2024-03-30T08:14:31.705Z,1.40
2024-03-30T08:15:32.458Z,1.80
2024-03-30T08:16:33.211Z,2.30
2024-03-30T08:17:33.993Z,1.80
2024-03-30T08:18:34.799Z,1.60
2024-03-30T08:19:35.583Z,2.00
2024-03-30T08:20:36.353Z,1.70
2024-03-30T08:21:37.141Z,1.70
2024-03-30T08:22:37.899Z,1.70
2024-03-30T08:23:38.809Z,1.90
2024-03-30T08:24:39.542Z,2.10
2024-03-30T08:25:40.280Z,1.90
2024-03-30T08:26:41.080Z,2.00
2024-03-30T08:27:41.803Z,1.80
2024-03-30T08:28:42.570Z,2.20
2024-03-30T08:29:43.390Z,2.30
2024-03-30T08:30:44.146Z,2.10
2024-03-30T08:31:44.892Z,1.70
2024-03-30T08:32:45.642Z,1.90
2024-03-30T08:33:46.439Z,1.80
2024-03-30T08:34:47.216Z,1.90
2024-03-30T08:35:47.993Z,2.10
2024-03-30T08:36:48.726Z,2.50
2024-03-30T08:37:49.467Z,2.00
2024-03-30T08:38:50.271Z,1.90
2024-03-30T08:39:51.013Z,2.10
2024-03-30T08:40:51.776Z,2.30
2024-03-30T08:41:52.635Z,2.20
2024-03-30T08:42:53.363Z,2.60
2024-03-30T08:43:54.142Z,2.20
2024-03-30T08:44:54.887Z,2.50
2024-03-30T08:45:55.663Z,1.80
2024-03-30T08:46:56.402Z,1.60
2024-03-30T08:47:57.212Z,2.10
2024-03-30T08:48:57.976Z,2.30
2024-03-30T08:49:58.726Z,1.90
2024-03-30T08:50:59.476Z,2.30
2024-03-30T08:52:00.267Z,2.10
2024-03-30T08:53:01.016Z,2.00
2024-03-30T08:54:01.818Z,2.20
2024-03-30T08:55:02.563Z,1.80
2024-03-30T08:56:03.347Z,2.00
2024-03-30T08:57:04.122Z,3.90
2024-03-30T08:58:04.856Z,3.20
2024-03-30T08:59:05.689Z,2.50
2024-03-30T09:00:06.473Z,1.80
2024-03-30T09:01:07.213Z,2.10
2024-03-30T09:02:07.994Z,1.70
2024-03-30T09:03:08.851Z,2.30
2024-03-30T09:04:09.599Z,2.50
2024-03-30T09:05:10.360Z,2.00
2024-03-30T09:06:10.958Z,2.20
2024-03-30T09:07:11.736Z,2.70
2024-03-30T09:08:12.470Z,1.90
2024-03-30T09:09:13.250Z,2.10
2024-03-30T09:10:14.033Z,2.50
2024-03-30T09:11:14.811Z,2.80
2024-03-30T09:12:15.610Z,2.00
2024-03-30T09:13:16.354Z,1.90
2024-03-30T09:14:17.158Z,2.10
2024-03-30T09:15:17.879Z,2.20
2024-03-30T09:16:18.692Z,1.80
2024-03-30T09:17:19.809Z,1.60
2024-03-30T09:18:20.039Z,2.10
2024-03-30T09:19:20.847Z,2.00
2024-03-30T09:20:21.592Z,2.30
2024-03-30T09:21:22.357Z,2.80
2024-03-30T09:22:23.230Z,2.60
2024-03-30T09:23:24.042Z,2.40
2024-03-30T09:24:24.834Z,2.20
2024-03-30T09:25:25.637Z,2.10
2024-03-30T09:26:26.340Z,1.90
2024-03-30T09:27:27.146Z,2.00
2024-03-30T09:28:28.060Z,2.00
2024-03-30T09:29:31.732Z,2.10
2024-03-30T09:30:29.777Z,2.70
2024-03-30T09:31:30.534Z,2.20
2024-03-30T09:32:31.301Z,1.50
2024-03-30T09:33:32.057Z,1.70
2024-03-30T09:34:38.766Z,3.30
2024-03-30T09:35:34.503Z,6.90
2024-03-30T09:36:34.243Z,5.60
2024-03-30T09:37:34.997Z,3.40
2024-03-30T09:38:35.745Z,2.50
2024-03-30T09:39:36.481Z,1.70
2024-03-30T09:40:37.290Z,2.10
2024-03-30T09:41:38.057Z,2.20
2024-03-30T09:42:38.866Z,1.80
2024-03-30T09:43:39.642Z,2.10
2024-03-30T09:44:40.395Z,2.10
2024-03-30T09:45:41.142Z,2.20
2024-03-30T09:46:41.951Z,2.30
2024-03-30T09:47:42.709Z,1.70
2024-03-30T09:48:43.667Z,1.80
2024-03-30T09:49:44.387Z,5.30
2024-03-30T09:50:45.121Z,1.90
2024-03-30T09:51:45.876Z,1.70
2024-03-30T09:52:46.736Z,1.70
2024-03-30T09:53:47.481Z,2.10
2024-03-30T09:54:48.227Z,1.60
2024-03-30T09:55:48.987Z,1.90
2024-03-30T09:56:49.724Z,2.10
2024-03-30T09:57:50.475Z,1.70
2024-03-30T09:58:51.252Z,2.50
2024-03-30T09:59:52.059Z,1.60
2024-03-30T10:00:52.880Z,1.60
2024-03-30T10:01:53.650Z,2.00
2024-03-30T10:02:54.452Z,1.80
2024-03-30T10:03:56.889Z,2.20
2024-03-30T10:04:56.028Z,1.90
2024-03-30T10:05:56.751Z,2.30
2024-03-30T10:06:57.533Z,2.00
2024-03-30T10:07:58.243Z,1.90
2024-03-30T10:08:59.060Z,2.80
2024-03-30T10:09:59.821Z,1.70
2024-03-30T10:11:00.566Z,2.00
2024-03-30T10:12:01.310Z,2.10
2024-03-30T10:13:02.057Z,2.20
2024-03-30T10:14:07.267Z,2.90
